Time;durP1;ratioP1;P1;durP2;ratioP2;P2;SDS_P1;SDS_P2;PMS_P1;PMS_P2;Temp;Humidity;BMP_temperature;BMP_pressure;BME280_temperature;BME280_humidity;BME280_pressure;Samples;Min_cycle;Max_cycle;Signal;HPM_P1;HPM_P2
2021/06/15 00:01:01;;;;;;;;;;;15.40;79.70;;;;;;5031080;28;19932;-65
2021/06/15 00:03:38;;;;;;;;;;;15.40;79.90;;;;;;5034240;28;19935;-66
2021/06/15 00:06:12;;;;;;;;;;;15.40;79.60;;;;;;5059893;28;19921;-65
2021/06/15 00:08:41;;;;;;;;;;;15.40;80.10;;;;;;5036212;28;19921;-65
2021/06/15 00:11:09;;;;;;;;;;;15.40;79.90;;;;;;5031494;28;20050;-65
2021/06/15 00:13:36;;;;;;;;;;;15.40;79.80;;;;;;5030178;28;20004;-65
2021/06/15 00:16:04;;;;;;;;;;;15.30;79.90;;;;;;5028740;28;20276;-65
2021/06/15 00:18:33;;;;;;;;;;;15.30;79.90;;;;;;5032605;28;19936;-65
2021/06/15 00:21:01;;;;;;;;;;;15.30;80.20;;;;;;5035522;28;20117;-65
2021/06/15 00:23:32;;;;;;;;;;;15.30;80.30;;;;;;5026844;28;20165;-66
2021/06/15 00:26:06;;;;;;;;;;;15.30;80.20;;;;;;5032067;28;19929;-65
2021/06/15 00:28:33;;;;;;;;;;;15.30;80.40;;;;;;5035240;28;19936;-65
2021/06/15 00:31:00;;;;;;;;;;;15.40;80.60;;;;;;5033972;28;19929;-66
2021/06/15 00:33:30;;;;;;;;;;;15.30;81.10;;;;;;5035841;28;19937;-66
2021/06/15 00:35:57;;;;;;;;;;;15.30;81.30;;;;;;5032509;28;19939;-66
2021/06/15 00:38:24;;;;;;;;;;;15.30;81.00;;;;;;5033487;28;19929;-66
2021/06/15 00:40:51;;;;;;;;;;;15.30;80.70;;;;;;5032133;28;19929;-66
2021/06/15 00:43:20;;;;;;;;;;;15.20;81.30;;;;;;5033966;28;19928;-66
2021/06/15 00:45:47;;;;;;;;;;;15.10;80.50;;;;;;5027364;28;20360;-65
2021/06/15 00:48:20;;;;;;;;;;;15.00;80.30;;;;;;5030241;28;20192;-64
2021/06/15 00:50:47;;;;;;;;;;;14.90;80.40;;;;;;5037530;28;20200;-65
2021/06/15 00:53:15;;;;;;;;;;;14.90;80.50;;;;;;5033196;28;20302;-66
2021/06/15 00:55:42;;;;;;;;;;;14.80;80.60;;;;;;5038473;28;20225;-66
2021/06/15 00:58:09;;;;;;;;;;;14.80;80.60;;;;;;5036384;28;19975;-64
2021/06/15 01:00:38;;;;;;;;;;;14.80;80.50;;;;;;5027837;28;19996;-65
2021/06/15 01:03:06;;;;;;;;;;;14.70;80.60;;;;;;5035054;28;20136;-65
2021/06/15 01:05:34;;;;;;;;;;;14.80;80.80;;;;;;5046828;28;19929;-65
2021/06/15 01:08:07;;;;;;;;;;;14.70;80.40;;;;;;5022793;28;19933;-65
2021/06/15 01:10:43;;;;;;;;;;;14.60;80.70;;;;;;5019599;28;19968;-65
2021/06/15 01:13:20;;;;;;;;;;;14.60;81.00;;;;;;5052035;28;19976;-66
2021/06/15 01:15:55;;;;;;;;;;;14.50;81.20;;;;;;5026700;28;19933;-65
2021/06/15 01:18:25;;;;;;;;;;;14.50;81.00;;;;;;5031883;28;19936;-66
2021/06/15 01:20:55;;;;;;;;;;;14.60;80.90;;;;;;5028421;28;19929;-66
2021/06/15 01:23:29;;;;;;;;;;;14.60;81.00;;;;;;5033174;28;19934;-64
2021/06/15 01:26:04;;;;;;;;;;;14.60;80.90;;;;;;5060064;28;20179;-65
2021/06/15 01:28:34;;;;;;;;;;;14.40;81.00;;;;;;5029937;28;20265;-66
2021/06/15 01:31:07;;;;;;;;;;;14.40;82.10;;;;;;5052414;28;19936;-65
2021/06/15 01:33:37;;;;;;;;;;;14.40;82.30;;;;;;5066657;28;19929;-64
2021/06/15 01:36:05;;;;;;;;;;;14.40;82.30;;;;;;5068143;28;19929;-65
2021/06/15 01:38:38;;;;;;;;;;;14.40;82.40;;;;;;5026848;28;20000;-66
2021/06/15 01:41:08;;;;;;;;;;;14.40;82.80;;;;;;5052753;28;19999;-66
2021/06/15 01:43:40;;;;;;;;;;;14.50;82.80;;;;;;5031599;28;19929;-65
2021/06/15 01:46:09;;;;;;;;;;;14.40;83.10;;;;;;5023698;28;19996;-66
2021/06/15 01:48:41;;;;;;;;;;;14.30;82.00;;;;;;5024400;28;19929;-65
2021/06/15 01:51:10;;;;;;;;;;;14.30;81.90;;;;;;5032233;28;19929;-65
2021/06/15 01:53:41;;;;;;;;;;;14.20;81.40;;;;;;5066409;28;19933;-65
2021/06/15 01:56:15;;;;;;;;;;;14.10;81.70;;;;;;5027108;28;19933;-65
2021/06/15 01:58:48;;;;;;;;;;;14.10;82.00;;;;;;5024189;28;20152;-65
2021/06/15 02:01:19;;;;;;;;;;;14.10;81.90;;;;;;5062349;28;19921;-65
2021/06/15 02:03:53;;;;;;;;;;;14.10;81.90;;;;;;5049801;28;19976;-66
2021/06/15 02:06:24;;;;;;;;;;;14.10;82.10;;;;;;5025418;28;19929;-66
2021/06/15 02:08:56;;;;;;;;;;;14.00;82.10;;;;;;5033509;28;19932;-65
2021/06/15 02:11:41;;;;;;;;;;;14.10;82.10;;;;;;5037816;28;19936;-66
2021/06/15 02:14:25;;;;;;;;;;;14.10;82.10;;;;;;5035839;28;19929;-65
2021/06/15 02:17:11;;;;;;;;;;;14.10;82.10;;;;;;5033067;28;19976;-67
2021/06/15 02:19:58;;;;;;;;;;;14.10;82.50;;;;;;5038051;28;19936;-66
2021/06/15 02:22:29;;;;;;;;;;;14.00;82.90;;;;;;5037115;28;20102;-66
2021/06/15 02:24:57;;;;;;;;;;;14.00;82.70;;;;;;5037003;28;20083;-66
2021/06/15 02:27:25;;;;;;;;;;;14.00;82.90;;;;;;5030645;28;19921;-65
2021/06/15 02:29:58;;;;;;;;;;;14.00;83.10;;;;;;5031128;28;20000;-66
2021/06/15 02:32:36;;;;;;;;;;;14.00;83.40;;;;;;5060695;28;19936;-66
2021/06/15 02:35:06;;;;;;;;;;;14.10;83.30;;;;;;5032006;28;19956;-65
2021/06/15 02:37:35;;;;;;;;;;;14.10;83.30;;;;;;5020382;28;20188;-64
2021/06/15 02:40:06;;;;;;;;;;;14.10;83.40;;;;;;5032375;28;20015;-65
2021/06/15 02:42:43;;;;;;;;;;;14.00;83.70;;;;;;5062897;28;20034;-66
2021/06/15 02:45:17;;;;;;;;;;;14.00;83.90;;;;;;5022535;28;20100;-66
2021/06/15 02:47:47;;;;;;;;;;;13.90;83.70;;;;;;5051042;28;20097;-65
2021/06/15 02:50:17;;;;;;;;;;;13.80;83.30;;;;;;5026056;28;19929;-66
2021/06/15 02:52:46;;;;;;;;;;;13.80;83.20;;;;;;5035186;28;20000;-66
2021/06/15 02:55:18;;;;;;;;;;;13.70;83.10;;;;;;5054915;28;19960;-65
2021/06/15 02:57:48;;;;;;;;;;;13.70;82.60;;;;;;5027747;28;19929;-65
2021/06/15 03:00:24;;;;;;;;;;;13.70;82.80;;;;;;5027487;28;19996;-67
2021/06/15 03:02:51;;;;;;;;;;;13.70;83.00;;;;;;5035615;28;19952;-65
2021/06/15 03:05:20;;;;;;;;;;;13.70;83.10;;;;;;5027297;28;19952;-66
2021/06/15 03:07:51;;;;;;;;;;;13.60;83.20;;;;;;5033049;28;19929;-66
2021/06/15 03:10:20;;;;;;;;;;;13.70;83.40;;;;;;5026415;28;19933;-66
2021/06/15 03:12:50;;;;;;;;;;;13.70;83.60;;;;;;5029204;28;20117;-65
2021/06/15 03:15:20;;;;;;;;;;;13.70;83.40;;;;;;5028204;28;19932;-65
2021/06/15 03:17:53;;;;;;;;;;;13.70;83.00;;;;;;5061582;28;19957;-66
2021/06/15 03:20:22;;;;;;;;;;;13.60;83.40;;;;;;5064579;28;19952;-64
2021/06/15 03:22:51;;;;;;;;;;;13.70;82.80;;;;;;5052040;28;20161;-67
2021/06/15 03:25:22;;;;;;;;;;;13.70;82.60;;;;;;5031799;28;19929;-65
2021/06/15 03:27:54;;;;;;;;;;;13.70;82.00;;;;;;5054540;28;20396;-65
2021/06/15 03:30:22;;;;;;;;;;;13.70;82.30;;;;;;5030349;28;20169;-65
2021/06/15 03:32:54;;;;;;;;;;;13.60;82.70;;;;;;5028932;28;19943;-65
2021/06/15 03:35:25;;;;;;;;;;;13.60;82.90;;;;;;5036926;28;19929;-66
2021/06/15 03:37:53;;;;;;;;;;;13.70;83.50;;;;;;5035131;28;19933;-66
2021/06/15 03:40:22;;;;;;;;;;;13.70;83.40;;;;;;5031877;28;19955;-65
2021/06/15 03:42:54;;;;;;;;;;;13.70;83.40;;;;;;5034109;28;19984;-66
2021/06/15 03:45:25;;;;;;;;;;;13.70;83.50;;;;;;5031850;28;19929;-65
2021/06/15 03:47:55;;;;;;;;;;;13.70;83.50;;;;;;5033360;28;19929;-65
2021/06/15 03:50:23;;;;;;;;;;;13.70;83.60;;;;;;5036655;28;19929;-65
2021/06/15 03:52:51;;;;;;;;;;;13.70;83.70;;;;;;5035142;28;19921;-67
2021/06/15 03:55:22;;;;;;;;;;;13.70;83.80;;;;;;5034832;28;19979;-65
2021/06/15 03:57:50;;;;;;;;;;;13.70;83.90;;;;;;5034978;28;20209;-66
2021/06/15 04:00:23;;;;;;;;;;;13.70;83.90;;;;;;5030737;28;20112;-66
2021/06/15 04:02:53;;;;;;;;;;;13.80;83.70;;;;;;5034770;28;19956;-67
2021/06/15 04:05:23;;;;;;;;;;;13.90;83.80;;;;;;5032836;28;20851;-66
2021/06/15 04:07:51;;;;;;;;;;;14.00;83.70;;;;;;5031142;28;19935;-66
2021/06/15 04:10:19;;;;;;;;;;;14.10;83.30;;;;;;5032343;28;19920;-66
2021/06/15 04:12:47;;;;;;;;;;;14.10;83.20;;;;;;5037835;28;20008;-65
2021/06/15 04:15:14;;;;;;;;;;;14.10;83.10;;;;;;5034703;28;19936;-66
2021/06/15 04:17:45;;;;;;;;;;;14.20;83.00;;;;;;5036948;28;20234;-66
2021/06/15 04:20:13;;;;;;;;;;;14.20;82.90;;;;;;5034925;28;19929;-66
2021/06/15 04:22:45;;;;;;;;;;;14.30;82.60;;;;;;5030235;28;20315;-65
2021/06/15 04:25:14;;;;;;;;;;;14.30;82.60;;;;;;5030432;28;20437;-66
2021/06/15 04:27:42;;;;;;;;;;;14.40;82.40;;;;;;5029610;28;20210;-66
2021/06/15 04:30:10;;;;;;;;;;;14.30;82.70;;;;;;5033854;28;19929;-66
2021/06/15 04:32:47;;;;;;;;;;;14.40;82.50;;;;;;5035347;28;20200;-66
2021/06/15 04:35:15;;;;;;;;;;;14.50;82.10;;;;;;5034286;28;19929;-66
2021/06/15 04:37:44;;;;;;;;;;;14.60;81.80;;;;;;5032859;28;19960;-65
2021/06/15 04:40:14;;;;;;;;;;;14.70;81.60;;;;;;5034029;28;19927;-66
2021/06/15 04:42:44;;;;;;;;;;;14.70;81.50;;;;;;5034997;28;20213;-66
2021/06/15 04:45:15;;;;;;;;;;;14.80;81.00;;;;;;5029887;28;19996;-66
2021/06/15 04:47:45;;;;;;;;;;;14.90;80.60;;;;;;5033849;28;19929;-65
2021/06/15 04:50:15;;;;;;;;;;;15.00;80.30;;;;;;5063612;28;19975;-65
2021/06/15 04:52:42;;;;;;;;;;;15.00;80.30;;;;;;5032411;28;19971;-66
2021/06/15 04:55:14;;;;;;;;;;;15.00;80.30;;;;;;5027825;28;20176;-65
2021/06/15 04:57:43;;;;;;;;;;;15.10;80.30;;;;;;5029158;28;19975;-65
2021/06/15 05:00:13;;;;;;;;;;;15.10;80.30;;;;;;5029018;28;20125;-65
2021/06/15 05:02:40;;;;;;;;;;;15.20;79.80;;;;;;5033047;28;19929;-65
2021/06/15 05:05:10;;;;;;;;;;;15.30;79.40;;;;;;5035067;28;19929;-67
2021/06/15 05:07:39;;;;;;;;;;;15.40;79.10;;;;;;5031448;28;20260;-66
2021/06/15 05:10:07;;;;;;;;;;;15.50;78.60;;;;;;5036482;28;19975;-65
2021/06/15 05:12:38;;;;;;;;;;;15.60;78.50;;;;;;5032568;28;20240;-64
2021/06/15 05:15:06;;;;;;;;;;;15.60;78.40;;;;;;5035157;28;19929;-66
2021/06/15 05:17:35;;;;;;;;;;;15.70;78.20;;;;;;5029212;28;19933;-65
2021/06/15 05:20:05;;;;;;;;;;;15.80;78.00;;;;;;5024346;28;20621;-64
2021/06/15 05:22:34;;;;;;;;;;;15.90;77.50;;;;;;5028842;28;19921;-66
2021/06/15 05:25:02;;;;;;;;;;;16.00;77.40;;;;;;5034315;28;20317;-66
2021/06/15 05:27:31;;;;;;;;;;;16.10;77.20;;;;;;5028485;28;19976;-65
2021/06/15 05:30:00;;;;;;;;;;;16.20;76.90;;;;;;5036035;28;19929;-66
2021/06/15 05:32:30;;;;;;;;;;;16.20;76.60;;;;;;5034707;28;19936;-66
2021/06/15 05:34:58;;;;;;;;;;;16.30;76.60;;;;;;5035789;28;20267;-65
2021/06/15 05:37:25;;;;;;;;;;;16.40;76.30;;;;;;5036537;28;20498;-66
2021/06/15 05:39:53;;;;;;;;;;;16.40;75.70;;;;;;5034335;28;19929;-66
2021/06/15 05:42:20;;;;;;;;;;;16.60;76.20;;;;;;5032943;28;20121;-65
2021/06/15 05:44:47;;;;;;;;;;;16.70;75.30;;;;;;5029526;28;19952;-66
2021/06/15 05:47:16;;;;;;;;;;;16.80;75.40;;;;;;5064554;28;20163;-66
2021/06/15 05:49:43;;;;;;;;;;;16.90;75.00;;;;;;5030059;28;19932;-66
2021/06/15 05:52:11;;;;;;;;;;;16.90;75.10;;;;;;5029496;28;19967;-65
2021/06/15 05:54:38;;;;;;;;;;;17.00;75.00;;;;;;5034145;28;19968;-65
2021/06/15 05:57:06;;;;;;;;;;;17.00;74.80;;;;;;5033214;28;20264;-66
2021/06/15 05:59:35;;;;;;;;;;;17.10;74.60;;;;;;5034085;28;19987;-66
2021/06/15 06:02:03;;;;;;;;;;;17.10;74.10;;;;;;5032230;28;19929;-66
2021/06/15 06:04:35;;;;;;;;;;;17.20;74.40;;;;;;5032223;28;19961;-66
2021/06/15 06:09:50;;;;;;;;;;;17.40;73.20;;;;;;5033804;28;19978;-65
2021/06/15 06:12:17;;;;;;;;;;;17.50;73.20;;;;;;5032310;28;19929;-65
2021/06/15 06:14:44;;;;;;;;;;;17.50;73.00;;;;;;5032268;28;20094;-65
2021/06/15 06:17:11;;;;;;;;;;;17.60;72.80;;;;;;5031926;28;19929;-65
2021/06/15 06:19:40;;;;;;;;;;;17.70;72.90;;;;;;5033274;28;19979;-67
2021/06/15 06:22:08;;;;;;;;;;;17.90;72.50;;;;;;5029996;28;20221;-66
2021/06/15 06:24:35;;;;;;;;;;;17.90;71.60;;;;;;5039495;28;19936;-66
2021/06/15 06:27:05;;;;;;;;;;;18.10;70.70;;;;;;5037126;28;19936;-66
2021/06/15 06:29:32;;;;;;;;;;;18.20;70.20;;;;;;5034985;28;20005;-66
2021/06/15 06:32:02;;;;;;;;;;;18.30;69.50;;;;;;5036195;28;19925;-65
2021/06/15 06:34:31;;;;;;;;;;;18.40;69.30;;;;;;5030820;28;19929;-67
2021/06/15 06:37:01;;;;;;;;;;;18.50;69.20;;;;;;5035352;28;19930;-65
2021/06/15 06:39:30;;;;;;;;;;;18.60;68.80;;;;;;5031218;28;19968;-66
2021/06/15 06:41:57;;;;;;;;;;;18.70;68.20;;;;;;5032834;28;19940;-66
2021/06/15 06:44:26;;;;;;;;;;;18.90;67.50;;;;;;5064196;28;19952;-66
2021/06/15 06:46:53;;;;;;;;;;;19.00;66.90;;;;;;5031077;28;19960;-67
2021/06/15 06:49:20;;;;;;;;;;;19.10;66.90;;;;;;5032249;28;20003;-65
2021/06/15 06:51:47;;;;;;;;;;;19.20;66.00;;;;;;5034731;28;19936;-65
2021/06/15 06:54:15;;;;;;;;;;;19.40;65.90;;;;;;5027520;28;20101;-66
2021/06/15 06:56:43;;;;;;;;;;;19.50;65.20;;;;;;5032930;28;19936;-65
2021/06/15 06:59:12;;;;;;;;;;;19.60;65.20;;;;;;5037678;28;20314;-66
2021/06/15 07:01:39;;;;;;;;;;;19.80;64.10;;;;;;5032986;28;20188;-65
2021/06/15 07:04:06;;;;;;;;;;;20.00;64.00;;;;;;5031147;28;19971;-66
2021/06/15 07:06:33;;;;;;;;;;;20.20;63.30;;;;;;5031622;28;19975;-66
2021/06/15 07:09:00;;;;;;;;;;;20.20;62.40;;;;;;5035173;28;19929;-66
2021/06/15 07:11:31;;;;;;;;;;;20.40;62.40;;;;;;5033558;28;20020;-65
2021/06/15 07:14:12;;;;;;;;;;;20.50;62.50;;;;;;5035926;28;19921;-66
2021/06/15 07:16:39;;;;;;;;;;;20.60;62.60;;;;;;5031872;28;20262;-66
2021/06/15 07:19:06;;;;;;;;;;;20.80;62.10;;;;;;5036241;28;19935;-67
2021/06/15 07:21:33;;;;;;;;;;;21.00;61.50;;;;;;5036869;28;19960;-67
2021/06/15 07:24:00;;;;;;;;;;;21.20;61.10;;;;;;5039894;28;19929;-66
2021/06/15 07:26:35;;;;;;;;;;;21.20;61.00;;;;;;5030628;28;19961;-66
2021/06/15 07:29:04;;;;;;;;;;;21.40;59.70;;;;;;5034569;28;20597;-66
2021/06/15 07:31:32;;;;;;;;;;;21.50;59.30;;;;;;5035565;28;19948;-66
2021/06/15 07:33:59;;;;;;;;;;;21.60;57.30;;;;;;5037093;28;19921;-65
2021/06/15 07:36:26;;;;;;;;;;;21.80;57.60;;;;;;5031687;28;19984;-67
2021/06/15 07:38:54;;;;;;;;;;;21.90;57.20;;;;;;5031841;28;19933;-66
2021/06/15 07:41:21;;;;;;;;;;;22.20;56.90;;;;;;5033479;28;20086;-65
2021/06/15 07:43:50;;;;;;;;;;;22.40;55.90;;;;;;5036496;28;19983;-66
2021/06/15 07:46:17;;;;;;;;;;;22.70;53.20;;;;;;5033966;28;19930;-66
2021/06/15 07:48:44;;;;;;;;;;;22.70;55.00;;;;;;5037567;28;20121;-66
2021/06/15 07:51:16;;;;;;;;;;;22.80;55.60;;;;;;5040971;28;19928;-65
2021/06/15 07:53:43;;;;;;;;;;;22.90;54.90;;;;;;5037143;28;19996;-66
2021/06/15 07:56:11;;;;;;;;;;;23.10;54.50;;;;;;5034347;28;20037;-66
2021/06/15 07:58:39;;;;;;;;;;;23.40;53.40;;;;;;5033453;28;19924;-67
2021/06/15 08:01:07;;;;;;;;;;;23.50;53.00;;;;;;5032706;28;20004;-65
2021/06/15 08:03:34;;;;;;;;;;;23.70;52.90;;;;;;5035730;28;20094;-65
2021/06/15 08:06:05;;;;;;;;;;;23.90;52.20;;;;;;5034971;28;19929;-64
2021/06/15 08:08:32;;;;;;;;;;;23.90;51.90;;;;;;5034206;28;20000;-65
2021/06/15 08:11:00;;;;;;;;;;;23.70;51.60;;;;;;5034282;28;19928;-65
2021/06/15 08:13:28;;;;;;;;;;;23.80;51.90;;;;;;5037483;28;20200;-65
2021/06/15 08:15:55;;;;;;;;;;;24.00;51.10;;;;;;5036612;28;19952;-64
2021/06/15 08:18:24;;;;;;;;;;;24.20;51.20;;;;;;5032877;28;19940;-64
2021/06/15 08:20:53;;;;;;;;;;;24.60;49.90;;;;;;5034533;28;19958;-65
2021/06/15 08:23:21;;;;;;;;;;;24.90;48.80;;;;;;5031685;28;19929;-64
2021/06/15 08:25:48;;;;;;;;;;;25.00;49.00;;;;;;5033067;28;19944;-66
2021/06/15 08:28:16;;;;;;;;;;;25.10;47.90;;;;;;5034503;28;19969;-65
2021/06/15 08:30:43;;;;;;;;;;;25.30;45.90;;;;;;5034843;28;19929;-66
2021/06/15 08:33:12;;;;;;;;;;;25.50;47.00;;;;;;5032325;28;19956;-67
2021/06/15 08:35:40;;;;;;;;;;;25.70;46.10;;;;;;5032624;28;19939;-65
2021/06/15 08:38:07;;;;;;;;;;;25.90;45.90;;;;;;5031472;28;19929;-66
2021/06/15 08:40:34;;;;;;;;;;;26.00;46.20;;;;;;5032045;28;20170;-66
2021/06/15 08:43:04;;;;;;;;;;;26.10;46.30;;;;;;5033291;28;20035;-65
2021/06/15 08:45:32;;;;;;;;;;;26.20;46.00;;;;;;5032666;28;20224;-66
2021/06/15 08:47:59;;;;;;;;;;;26.10;46.70;;;;;;5033059;28;20236;-66
2021/06/15 08:50:27;;;;;;;;;;;26.50;46.50;;;;;;5031491;28;19936;-66
2021/06/15 08:52:57;;;;;;;;;;;26.60;45.80;;;;;;5032115;28;19967;-65
2021/06/15 08:55:29;;;;;;;;;;;26.70;45.70;;;;;;5033337;28;19929;-66
2021/06/15 08:58:05;;;;;;;;;;;26.80;45.50;;;;;;5033803;28;19921;-65
2021/06/15 09:00:32;;;;;;;;;;;26.90;45.80;;;;;;5031182;28;19956;-67
2021/06/15 09:02:59;;;;;;;;;;;26.90;45.20;;;;;;5035725;28;19976;-66
2021/06/15 09:05:26;;;;;;;;;;;26.70;45.70;;;;;;5027211;28;19929;-66
2021/06/15 09:08:01;;;;;;;;;;;26.40;45.70;;;;;;5030541;28;20190;-66
2021/06/15 09:10:30;;;;;;;;;;;26.20;46.80;;;;;;5037374;28;19929;-65
2021/06/15 09:12:58;;;;;;;;;;;26.30;46.60;;;;;;5032954;28;19928;-66
2021/06/15 09:15:28;;;;;;;;;;;26.30;45.20;;;;;;5034067;28;19936;-65
2021/06/15 09:17:55;;;;;;;;;;;26.40;46.10;;;;;;5030079;28;19929;-66
2021/06/15 09:20:24;;;;;;;;;;;26.50;45.90;;;;;;5048888;28;19933;-70
2021/06/15 09:23:03;;;;;;;;;;;26.60;45.70;;;;;;5032755;28;20216;-66
2021/06/15 09:25:32;;;;;;;;;;;26.60;43.40;;;;;;5033070;28;20228;-66
2021/06/15 09:28:01;;;;;;;;;;;26.60;42.80;;;;;;5034951;28;19929;-65
2021/06/15 09:30:29;;;;;;;;;;;26.60;43.90;;;;;;5035986;28;19968;-66
2021/06/15 09:33:08;;;;;;;;;;;26.60;44.60;;;;;;5036058;28;19951;-66
2021/06/15 09:35:37;;;;;;;;;;;26.60;44.80;;;;;;5033398;28;20209;-66
2021/06/15 09:38:05;;;;;;;;;;;26.60;45.40;;;;;;5029714;28;19937;-65
2021/06/15 09:40:34;;;;;;;;;;;26.50;45.20;;;;;;5034986;28;19980;-65
2021/06/15 09:43:04;;;;;;;;;;;26.60;44.30;;;;;;5033130;28;19928;-65
2021/06/15 09:45:32;;;;;;;;;;;26.50;44.70;;;;;;5050671;28;20247;-65
2021/06/15 09:48:14;;;;;;;;;;;26.60;44.20;;;;;;5030930;28;19929;-65
2021/06/15 09:50:43;;;;;;;;;;;26.30;45.20;;;;;;5033540;28;20207;-66
2021/06/15 09:53:23;;;;;;;;;;;26.40;45.10;;;;;;5035277;28;19929;-67
2021/06/15 09:55:50;;;;;;;;;;;26.20;45.20;;;;;;5036698;28;19930;-66
2021/06/15 09:58:17;;;;;;;;;;;26.30;45.30;;;;;;5037768;28;19935;-65
2021/06/15 10:00:54;;;;;;;;;;;26.50;44.70;;;;;;5034333;28;19961;-67
2021/06/15 10:03:21;;;;;;;;;;;26.80;45.10;;;;;;5034750;28;19936;-66
2021/06/15 10:05:48;;;;;;;;;;;27.20;44.00;;;;;;5037605;28;19933;-65
2021/06/15 10:08:15;;;;;;;;;;;27.60;43.50;;;;;;5034656;28;19960;-66
2021/06/15 10:10:47;;;;;;;;;;;27.80;41.80;;;;;;5041199;28;19921;-66
2021/06/15 10:13:17;;;;;;;;;;;28.10;41.10;;;;;;5063257;28;20215;-66
2021/06/15 10:15:44;;;;;;;;;;;28.50;40.40;;;;;;5040070;28;20028;-66
2021/06/15 10:18:12;;;;;;;;;;;28.80;40.40;;;;;;5040284;28;19929;-65
2021/06/15 10:20:39;;;;;;;;;;;29.20;39.00;;;;;;5074087;28;19976;-65
2021/06/15 10:23:06;;;;;;;;;;;29.70;38.00;;;;;;5039317;28;19967;-66
2021/06/15 10:25:34;;;;;;;;;;;30.00;38.20;;;;;;5040151;28;19935;-66
2021/06/15 10:28:11;;;;;;;;;;;30.40;37.30;;;;;;5034301;28;19921;-66
2021/06/15 10:30:40;;;;;;;;;;;30.70;35.90;;;;;;5038734;28;19960;-66
2021/06/15 10:33:13;;;;;;;;;;;31.20;34.80;;;;;;5038123;28;19928;-65
2021/06/15 10:35:46;;;;;;;;;;;31.80;33.60;;;;;;5037421;28;20086;-66
2021/06/15 10:38:17;;;;;;;;;;;32.20;31.50;;;;;;5041306;28;20182;-66
2021/06/15 10:40:49;;;;;;;;;;;33.20;31.50;;;;;;5036832;28;19929;-65
2021/06/15 10:43:21;;;;;;;;;;;33.80;29.60;;;;;;5035046;28;19928;-67
2021/06/15 10:45:52;;;;;;;;;;;35.40;28.70;;;;;;5036890;28;20139;-66
2021/06/15 10:48:29;;;;;;;;;;;36.10;25.80;;;;;;5038380;28;19944;-66
2021/06/15 10:50:57;;;;;;;;;;;36.70;26.80;;;;;;5042855;28;20116;-66
2021/06/15 10:53:34;;;;;;;;;;;37.20;25.00;;;;;;5040745;28;19996;-66
2021/06/15 10:56:03;;;;;;;;;;;37.70;25.30;;;;;;5033214;28;19963;-66
2021/06/15 10:58:49;;;;;;;;;;;38.30;24.30;;;;;;5037228;28;20012;-66
2021/06/15 11:01:18;;;;;;;;;;;38.50;24.40;;;;;;5036978;28;19968;-66
2021/06/15 11:03:45;;;;;;;;;;;39.30;23.60;;;;;;5042077;28;19935;-66
2021/06/15 11:06:13;;;;;;;;;;;39.00;23.50;;;;;;5041015;28;19929;-66
2021/06/15 11:08:40;;;;;;;;;;;39.20;22.60;;;;;;5038735;28;20019;-67
2021/06/15 11:11:18;;;;;;;;;;;39.50;22.30;;;;;;5041061;28;19927;-66
2021/06/15 11:13:46;;;;;;;;;;;40.00;21.80;;;;;;5041681;28;19929;-67
2021/06/15 11:16:23;;;;;;;;;;;39.10;22.80;;;;;;5041392;28;20105;-67
2021/06/15 11:19:14;;;;;;;;;;;39.50;23.10;;;;;;5038941;28;19928;-67
2021/06/15 11:21:48;;;;;;;;;;;39.50;23.50;;;;;;5041723;28;19928;-67
2021/06/15 11:24:18;;;;;;;;;;;38.50;23.90;;;;;;5036193;28;20175;-66
2021/06/15 11:26:49;;;;;;;;;;;39.30;22.70;;;;;;5034934;28;19951;-65
2021/06/15 11:29:26;;;;;;;;;;;40.00;22.40;;;;;;5040779;28;19979;-65
2021/06/15 11:32:15;;;;;;;;;;;40.40;21.90;;;;;;5038117;28;19963;-67
2021/06/15 11:35:04;;;;;;;;;;;40.60;20.90;;;;;;5034618;28;19967;-66
2021/06/15 11:37:33;;;;;;;;;;;40.20;21.20;;;;;;5039942;28;20225;-66
2021/06/15 11:40:16;;;;;;;;;;;39.90;21.70;;;;;;5039303;28;19925;-65
2021/06/15 11:42:44;;;;;;;;;;;38.90;22.50;;;;;;5040294;28;19929;-66
2021/06/15 11:45:12;;;;;;;;;;;39.50;21.90;;;;;;5040010;28;20097;-66
2021/06/15 11:47:43;;;;;;;;;;;40.30;21.90;;;;;;5036348;28;19929;-66
2021/06/15 11:50:18;;;;;;;;;;;41.00;21.50;;;;;;5033944;28;19933;-66
2021/06/15 11:52:53;;;;;;;;;;;41.10;20.70;;;;;;5039487;28;20089;-66
2021/06/15 11:55:23;;;;;;;;;;;41.50;20.90;;;;;;5038307;28;19983;-66
2021/06/15 11:57:50;;;;;;;;;;;42.20;19.50;;;;;;5033959;28;19933;-66
2021/06/15 12:00:18;;;;;;;;;;;42.10;20.20;;;;;;5031890;28;20093;-66
2021/06/15 12:02:47;;;;;;;;;;;42.20;19.80;;;;;;5037456;28;19937;-65
2021/06/15 12:05:15;;;;;;;;;;;38.90;22.60;;;;;;5036363;28;20193;-65
2021/06/15 12:07:51;;;;;;;;;;;37.00;24.90;;;;;;5038189;28;20339;-67
2021/06/15 12:10:18;;;;;;;;;;;38.20;24.50;;;;;;5037786;28;19928;-67
2021/06/15 12:13:04;;;;;;;;;;;40.00;22.20;;;;;;5037532;28;19921;-67
2021/06/15 12:15:39;;;;;;;;;;;40.90;21.30;;;;;;5029641;28;20052;-67
2021/06/15 12:18:09;;;;;;;;;;;41.80;20.20;;;;;;5062728;28;19929;-67
2021/06/15 12:20:37;;;;;;;;;;;40.90;21.40;;;;;;5032793;28;19930;-67
2021/06/15 12:23:23;;;;;;;;;;;41.70;20.40;;;;;;5033756;28;19939;-67
2021/06/15 12:25:53;;;;;;;;;;;42.20;20.30;;;;;;5033213;28;19956;-67
2021/06/15 12:28:21;;;;;;;;;;;42.40;19.90;;;;;;5033745;28;19957;-67
2021/06/15 12:31:02;;;;;;;;;;;42.60;19.00;;;;;;5035545;28;19929;-67
2021/06/15 12:33:31;;;;;;;;;;;43.20;18.10;;;;;;5037254;28;20024;-67
2021/06/15 12:35:59;;;;;;;;;;;43.30;18.00;;;;;;5035875;28;19936;-68
2021/06/15 12:38:27;;;;;;;;;;;43.70;18.20;;;;;;5025142;28;20209;-67
2021/06/15 12:40:54;;;;;;;;;;;44.00;16.40;;;;;;5032419;28;19929;-67
2021/06/15 12:43:23;;;;;;;;;;;43.90;17.50;;;;;;5031830;28;20055;-68
2021/06/15 12:45:50;;;;;;;;;;;44.00;16.50;;;;;;5033277;28;19921;-66
2021/06/15 12:48:22;;;;;;;;;;;42.30;15.50;;;;;;5030373;28;19922;-67
2021/06/15 12:51:11;;;;;;;;;;;40.60;18.10;;;;;;5033790;28;19921;-67
2021/06/15 12:53:42;;;;;;;;;;;40.80;18.70;;;;;;5031865;28;19929;-67
2021/06/15 12:56:27;;;;;;;;;;;42.90;17.70;;;;;;5031428;28;19991;-66
2021/06/15 12:58:57;;;;;;;;;;;44.40;16.40;;;;;;5032004;28;20479;-67
2021/06/15 13:01:27;;;;;;;;;;;44.40;16.50;;;;;;5027470;28;19929;-66
2021/06/15 13:03:54;;;;;;;;;;;45.60;16.10;;;;;;5030753;28;21394;-66
2021/06/15 13:06:23;;;;;;;;;;;44.90;17.50;;;;;;5033361;28;19927;-66
2021/06/15 13:08:52;;;;;;;;;;;41.90;20.00;;;;;;5031530;28;19936;-67
2021/06/15 13:11:23;;;;;;;;;;;39.80;21.90;;;;;;5036591;28;19927;-67
2021/06/15 13:13:54;;;;;;;;;;;40.90;21.50;;;;;;5033807;28;20004;-67
2021/06/15 13:16:22;;;;;;;;;;;42.80;20.00;;;;;;5034394;28;20024;-67
2021/06/15 13:18:59;;;;;;;;;;;43.60;19.30;;;;;;5033484;28;20167;-67
2021/06/15 13:21:41;;;;;;;;;;;44.40;18.70;;;;;;5035343;28;19933;-67
2021/06/15 13:24:11;;;;;;;;;;;44.40;17.80;;;;;;5033018;28;19929;-66
2021/06/15 13:26:38;;;;;;;;;;;45.50;17.20;;;;;;5038242;28;20241;-67
2021/06/15 13:29:05;;;;;;;;;;;45.70;16.70;;;;;;5033567;28;19930;-66
2021/06/15 13:31:32;;;;;;;;;;;45.50;16.70;;;;;;5036638;28;19965;-67
2021/06/15 13:34:03;;;;;;;;;;;45.80;16.00;;;;;;5037364;28;20240;-66
2021/06/15 13:36:31;;;;;;;;;;;43.20;17.50;;;;;;5035973;28;20271;-67
2021/06/15 13:39:06;;;;;;;;;;;42.80;18.90;;;;;;5033944;28;19945;-67
2021/06/15 13:41:35;;;;;;;;;;;43.50;18.20;;;;;;5032338;28;19992;-68
2021/06/15 13:44:05;;;;;;;;;;;43.90;17.90;;;;;;5036023;28;19937;-67
2021/06/15 13:46:32;;;;;;;;;;;43.30;17.70;;;;;;5035624;28;20125;-67
2021/06/15 13:49:01;;;;;;;;;;;40.30;20.80;;;;;;5037456;28;19929;-66
2021/06/15 13:51:32;;;;;;;;;;;41.30;20.10;;;;;;5037395;28;21477;-68
2021/06/15 13:54:01;;;;;;;;;;;42.80;19.50;;;;;;5040459;28;19929;-67
2021/06/15 13:56:32;;;;;;;;;;;43.60;18.80;;;;;;5038783;28;20156;-67
2021/06/15 13:59:00;;;;;;;;;;;43.40;19.00;;;;;;5037852;28;19925;-67
2021/06/15 14:01:27;;;;;;;;;;;43.60;18.80;;;;;;5027450;28;20129;-67
2021/06/15 14:03:54;;;;;;;;;;;43.60;18.10;;;;;;5038966;28;19939;-67
2021/06/15 14:06:22;;;;;;;;;;;44.00;18.20;;;;;;5036543;28;19928;-66
2021/06/15 14:08:49;;;;;;;;;;;44.00;18.30;;;;;;5035126;28;19921;-67
2021/06/15 14:11:17;;;;;;;;;;;43.90;19.00;;;;;;5034614;28;19922;-67
2021/06/15 14:13:47;;;;;;;;;;;44.40;17.70;;;;;;5037450;28;20144;-67
2021/06/15 14:16:17;;;;;;;;;;;44.10;17.70;;;;;;5035170;28;19921;-66
2021/06/15 14:18:52;;;;;;;;;;;45.00;18.00;;;;;;5074630;28;19943;-68
2021/06/15 14:21:21;;;;;;;;;;;45.00;18.70;;;;;;5038077;28;19932;-67
2021/06/15 14:23:48;;;;;;;;;;;44.50;17.90;;;;;;5039364;28;19929;-66
2021/06/15 14:26:21;;;;;;;;;;;44.00;18.70;;;;;;5031511;28;19933;-66
2021/06/15 14:28:50;;;;;;;;;;;41.40;20.80;;;;;;5062809;28;19929;-67
2021/06/15 14:31:19;;;;;;;;;;;40.70;22.00;;;;;;5033954;28;19939;-67
2021/06/15 14:33:46;;;;;;;;;;;41.80;21.00;;;;;;5058469;28;19975;-65
2021/06/15 14:36:16;;;;;;;;;;;42.50;20.40;;;;;;5025001;28;19935;-68